sensor_id;sensor_type;location;lat;lon;timestamp;P1;durP1;ratioP1;P2;durP2;ratioP2
34920;SDS011;21128;50.016;20.002;2023-04-21T00:01:48;35.80;;;15.47;;
34920;SDS011;21128;50.016;20.002;2023-04-21T00:04:15;46.45;;;23.55;;
34920;SDS011;21128;50.016;20.002;2023-04-21T00:06:43;34.23;;;18.65;;
34920;SDS011;21128;50.016;20.002;2023-04-21T00:09:11;39.77;;;20.30;;
34920;SDS011;21128;50.016;20.002;2023-04-21T00:11:38;30.33;;;16.03;;
34920;SDS011;21128;50.016;20.002;2023-04-21T00:14:05;31.97;;;15.83;;
34920;SDS011;21128;50.016;20.002;2023-04-21T00:16:32;34.10;;;16.93;;
34920;SDS011;21128;50.016;20.002;2023-04-21T00:18:59;28.55;;;16.23;;
34920;SDS011;21128;50.016;20.002;2023-04-21T00:21:26;42.97;;;17.07;;
34920;SDS011;21128;50.016;20.002;2023-04-21T00:23:53;32.90;;;17.25;;
34920;SDS011;21128;50.016;20.002;2023-04-21T00:26:20;43.93;;;18.07;;
34920;SDS011;21128;50.016;20.002;2023-04-21T00:28:46;34.90;;;17.27;;
34920;SDS011;21128;50.016;20.002;2023-04-21T00:31:13;35.25;;;17.05;;
34920;SDS011;21128;50.016;20.002;2023-04-21T00:33:40;35.68;;;17.55;;
34920;SDS011;21128;50.016;20.002;2023-04-21T00:36:07;34.43;;;17.43;;
34920;SDS011;21128;50.016;20.002;2023-04-21T00:38:34;42.75;;;17.30;;
34920;SDS011;21128;50.016;20.002;2023-04-21T00:41:02;39.27;;;18.30;;
34920;SDS011;21128;50.016;20.002;2023-04-21T00:43:28;31.83;;;17.17;;
34920;SDS011;21128;50.016;20.002;2023-04-21T00:45:56;27.33;;;17.10;;
34920;SDS011;21128;50.016;20.002;2023-04-21T00:48:23;30.07;;;17.33;;
34920;SDS011;21128;50.016;20.002;2023-04-21T00:50:50;38.80;;;17.90;;
34920;SDS011;21128;50.016;20.002;2023-04-21T00:53:17;39.95;;;18.05;;
34920;SDS011;21128;50.016;20.002;2023-04-21T00:55:46;44.53;;;19.98;;
34920;SDS011;21128;50.016;20.002;2023-04-21T00:58:13;35.10;;;19.83;;
34920;SDS011;21128;50.016;20.002;2023-04-21T01:00:40;35.13;;;18.30;;
34920;SDS011;21128;50.016;20.002;2023-04-21T01:03:08;43.20;;;19.85;;
34920;SDS011;21128;50.016;20.002;2023-04-21T01:05:35;36.97;;;19.10;;
34920;SDS011;21128;50.016;20.002;2023-04-21T01:08:02;35.90;;;20.40;;
34920;SDS011;21128;50.016;20.002;2023-04-21T01:10:32;39.23;;;20.63;;
34920;SDS011;21128;50.016;20.002;2023-04-21T01:12:58;41.15;;;20.17;;
34920;SDS011;21128;50.016;20.002;2023-04-21T01:15:25;34.00;;;19.00;;
34920;SDS011;21128;50.016;20.002;2023-04-21T01:17:56;40.47;;;18.77;;
34920;SDS011;21128;50.016;20.002;2023-04-21T01:20:23;36.83;;;20.13;;
34920;SDS011;21128;50.016;20.002;2023-04-21T01:22:50;39.42;;;21.48;;
34920;SDS011;21128;50.016;20.002;2023-04-21T01:25:17;41.53;;;20.73;;
34920;SDS011;21128;50.016;20.002;2023-04-21T01:27:47;41.83;;;20.90;;
34920;SDS011;21128;50.016;20.002;2023-04-21T01:30:14;40.65;;;19.85;;
34920;SDS011;21128;50.016;20.002;2023-04-21T01:32:41;37.60;;;20.73;;
34920;SDS011;21128;50.016;20.002;2023-04-21T01:35:08;40.05;;;19.48;;
34920;SDS011;21128;50.016;20.002;2023-04-21T01:37:36;39.73;;;20.17;;
34920;SDS011;21128;50.016;20.002;2023-04-21T01:40:04;44.95;;;20.02;;
34920;SDS011;21128;50.016;20.002;2023-04-21T01:42:33;40.67;;;20.70;;
34920;SDS011;21128;50.016;20.002;2023-04-21T01:45:02;34.10;;;19.67;;
34920;SDS011;21128;50.016;20.002;2023-04-21T01:47:29;38.13;;;21.43;;
34920;SDS011;21128;50.016;20.002;2023-04-21T01:49:56;46.87;;;21.33;;
34920;SDS011;21128;50.016;20.002;2023-04-21T01:52:23;39.00;;;20.53;;
34920;SDS011;21128;50.016;20.002;2023-04-21T01:54:50;40.80;;;20.53;;
34920;SDS011;21128;50.016;20.002;2023-04-21T01:57:17;40.60;;;22.30;;
34920;SDS011;21128;50.016;20.002;2023-04-21T01:59:44;42.77;;;21.93;;
34920;SDS011;21128;50.016;20.002;2023-04-21T02:02:11;36.17;;;21.50;;
34920;SDS011;21128;50.016;20.002;2023-04-21T02:04:38;44.50;;;22.87;;
34920;SDS011;21128;50.016;20.002;2023-04-21T02:07:06;40.03;;;22.70;;
34920;SDS011;21128;50.016;20.002;2023-04-21T02:09:32;43.90;;;22.37;;
34920;SDS011;21128;50.016;20.002;2023-04-21T02:12:00;38.33;;;23.10;;
34920;SDS011;21128;50.016;20.002;2023-04-21T02:14:28;40.03;;;22.33;;
34920;SDS011;21128;50.016;20.002;2023-04-21T02:16:55;51.33;;;22.53;;
34920;SDS011;21128;50.016;20.002;2023-04-21T02:19:22;40.30;;;23.77;;
34920;SDS011;21128;50.016;20.002;2023-04-21T02:21:49;47.33;;;21.97;;
34920;SDS011;21128;50.016;20.002;2023-04-21T02:24:16;46.20;;;23.77;;
34920;SDS011;21128;50.016;20.002;2023-04-21T02:26:43;46.87;;;22.93;;
34920;SDS011;21128;50.016;20.002;2023-04-21T02:29:10;50.30;;;24.02;;
34920;SDS011;21128;50.016;20.002;2023-04-21T02:31:37;39.75;;;22.70;;
34920;SDS011;21128;50.016;20.002;2023-04-21T02:34:04;43.83;;;22.43;;
34920;SDS011;21128;50.016;20.002;2023-04-21T02:36:31;44.20;;;23.90;;
34920;SDS011;21128;50.016;20.002;2023-04-21T02:38:59;40.10;;;23.73;;
34920;SDS011;21128;50.016;20.002;2023-04-21T02:41:25;41.60;;;21.27;;
34920;SDS011;21128;50.016;20.002;2023-04-21T02:43:53;41.68;;;20.82;;
34920;SDS011;21128;50.016;20.002;2023-04-21T02:46:20;39.37;;;21.13;;
34920;SDS011;21128;50.016;20.002;2023-04-21T02:48:47;37.35;;;21.50;;
34920;SDS011;21128;50.016;20.002;2023-04-21T02:51:14;37.45;;;22.05;;
34920;SDS011;21128;50.016;20.002;2023-04-21T02:53:41;39.47;;;19.80;;
34920;SDS011;21128;50.016;20.002;2023-04-21T02:56:08;45.78;;;21.27;;
34920;SDS011;21128;50.016;20.002;2023-04-21T02:58:36;41.07;;;20.53;;
34920;SDS011;21128;50.016;20.002;2023-04-21T03:01:03;45.57;;;21.07;;
34920;SDS011;21128;50.016;20.002;2023-04-21T03:03:31;44.00;;;21.30;;
34920;SDS011;21128;50.016;20.002;2023-04-21T03:06:02;37.03;;;21.27;;
34920;SDS011;21128;50.016;20.002;2023-04-21T03:08:31;38.10;;;20.00;;
34920;SDS011;21128;50.016;20.002;2023-04-21T03:10:58;38.97;;;20.80;;
34920;SDS011;21128;50.016;20.002;2023-04-21T03:13:25;31.60;;;19.90;;
34920;SDS011;21128;50.016;20.002;2023-04-21T03:15:52;44.10;;;21.40;;
34920;SDS011;21128;50.016;20.002;2023-04-21T03:18:19;35.00;;;20.33;;
34920;SDS011;21128;50.016;20.002;2023-04-21T03:20:46;45.57;;;19.50;;
34920;SDS011;21128;50.016;20.002;2023-04-21T03:23:13;49.13;;;20.27;;
34920;SDS011;21128;50.016;20.002;2023-04-21T03:25:40;38.50;;;20.23;;
34920;SDS011;21128;50.016;20.002;2023-04-21T03:28:07;36.75;;;20.57;;
34920;SDS011;21128;50.016;20.002;2023-04-21T03:30:34;39.40;;;20.45;;
34920;SDS011;21128;50.016;20.002;2023-04-21T03:33:01;42.47;;;19.73;;
34920;SDS011;21128;50.016;20.002;2023-04-21T03:35:28;40.50;;;20.77;;
34920;SDS011;21128;50.016;20.002;2023-04-21T03:37:56;39.73;;;20.63;;
34920;SDS011;21128;50.016;20.002;2023-04-21T03:40:23;40.30;;;20.70;;
34920;SDS011;21128;50.016;20.002;2023-04-21T03:42:50;42.73;;;20.50;;
34920;SDS011;21128;50.016;20.002;2023-04-21T03:45:16;43.20;;;21.40;;
34920;SDS011;21128;50.016;20.002;2023-04-21T03:47:48;40.20;;;20.50;;
34920;SDS011;21128;50.016;20.002;2023-04-21T03:50:18;35.80;;;20.17;;
34920;SDS011;21128;50.016;20.002;2023-04-21T03:52:45;37.10;;;21.05;;
34920;SDS011;21128;50.016;20.002;2023-04-21T03:55:12;33.15;;;20.30;;
34920;SDS011;21128;50.016;20.002;2023-04-21T03:57:39;35.90;;;20.23;;
34920;SDS011;21128;50.016;20.002;2023-04-21T04:00:07;32.70;;;20.40;;
34920;SDS011;21128;50.016;20.002;2023-04-21T04:02:36;39.90;;;20.45;;
34920;SDS011;21128;50.016;20.002;2023-04-21T04:05:03;36.77;;;20.02;;
34920;SDS011;21128;50.016;20.002;2023-04-21T04:07:31;37.43;;;20.23;;
34920;SDS011;21128;50.016;20.002;2023-04-21T04:09:58;41.37;;;21.53;;
34920;SDS011;21128;50.016;20.002;2023-04-21T04:12:25;41.23;;;21.40;;
34920;SDS011;21128;50.016;20.002;2023-04-21T04:14:52;47.00;;;20.70;;
34920;SDS011;21128;50.016;20.002;2023-04-21T04:17:19;41.37;;;20.40;;
34920;SDS011;21128;50.016;20.002;2023-04-21T04:19:46;52.90;;;21.10;;
34920;SDS011;21128;50.016;20.002;2023-04-21T04:22:13;44.53;;;19.63;;
34920;SDS011;21128;50.016;20.002;2023-04-21T04:24:40;36.87;;;20.27;;
34920;SDS011;21128;50.016;20.002;2023-04-21T04:27:07;39.55;;;18.40;;
34920;SDS011;21128;50.016;20.002;2023-04-21T04:29:35;32.90;;;18.45;;
34920;SDS011;21128;50.016;20.002;2023-04-21T04:32:02;37.13;;;19.60;;
34920;SDS011;21128;50.016;20.002;2023-04-21T04:34:29;36.57;;;19.67;;
34920;SDS011;21128;50.016;20.002;2023-04-21T04:36:56;41.60;;;19.43;;
34920;SDS011;21128;50.016;20.002;2023-04-21T04:39:24;35.27;;;19.33;;
34920;SDS011;21128;50.016;20.002;2023-04-21T04:41:51;41.53;;;18.47;;
34920;SDS011;21128;50.016;20.002;2023-04-21T04:44:18;31.63;;;18.30;;
34920;SDS011;21128;50.016;20.002;2023-04-21T04:46:45;33.67;;;17.50;;
34920;SDS011;21128;50.016;20.002;2023-04-21T04:49:13;34.27;;;18.30;;
34920;SDS011;21128;50.016;20.002;2023-04-21T04:51:40;32.30;;;17.20;;
34920;SDS011;21128;50.016;20.002;2023-04-21T04:54:08;34.97;;;17.23;;
34920;SDS011;21128;50.016;20.002;2023-04-21T04:56:35;34.93;;;17.33;;
34920;SDS011;21128;50.016;20.002;2023-04-21T04:59:02;40.73;;;18.50;;
34920;SDS011;21128;50.016;20.002;2023-04-21T05:01:29;34.35;;;18.10;;
34920;SDS011;21128;50.016;20.002;2023-04-21T05:03:56;27.10;;;17.00;;
34920;SDS011;21128;50.016;20.002;2023-04-21T05:06:24;35.55;;;18.35;;
34920;SDS011;21128;50.016;20.002;2023-04-21T05:08:51;41.47;;;17.73;;
34920;SDS011;21128;50.016;20.002;2023-04-21T05:11:18;35.63;;;17.33;;
34920;SDS011;21128;50.016;20.002;2023-04-21T05:13:45;36.30;;;18.30;;
34920;SDS011;21128;50.016;20.002;2023-04-21T05:16:12;36.55;;;16.70;;
34920;SDS011;21128;50.016;20.002;2023-04-21T05:18:39;34.37;;;16.17;;
34920;SDS011;21128;50.016;20.002;2023-04-21T05:21:06;48.33;;;17.93;;
34920;SDS011;21128;50.016;20.002;2023-04-21T05:23:33;37.45;;;17.32;;
34920;SDS011;21128;50.016;20.002;2023-04-21T05:26:01;36.58;;;18.60;;
34920;SDS011;21128;50.016;20.002;2023-04-21T05:28:27;42.97;;;17.43;;
34920;SDS011;21128;50.016;20.002;2023-04-21T05:30:56;35.33;;;18.50;;
34920;SDS011;21128;50.016;20.002;2023-04-21T05:33:23;34.00;;;18.27;;
34920;SDS011;21128;50.016;20.002;2023-04-21T05:35:52;40.43;;;18.20;;
34920;SDS011;21128;50.016;20.002;2023-04-21T05:38:19;34.70;;;16.50;;
34920;SDS011;21128;50.016;20.002;2023-04-21T05:40:51;45.23;;;16.60;;
34920;SDS011;21128;50.016;20.002;2023-04-21T05:43:19;45.55;;;16.85;;
34920;SDS011;21128;50.016;20.002;2023-04-21T05:45:46;36.83;;;16.93;;
34920;SDS011;21128;50.016;20.002;2023-04-21T05:48:14;34.00;;;17.10;;
34920;SDS011;21128;50.016;20.002;2023-04-21T05:50:41;40.03;;;17.10;;
34920;SDS011;21128;50.016;20.002;2023-04-21T05:53:07;34.90;;;16.73;;
34920;SDS011;21128;50.016;20.002;2023-04-21T05:55:35;30.13;;;16.47;;
34920;SDS011;21128;50.016;20.002;2023-04-21T05:58:02;31.90;;;16.03;;
34920;SDS011;21128;50.016;20.002;2023-04-21T06:00:29;38.85;;;15.43;;
34920;SDS011;21128;50.016;20.002;2023-04-21T06:02:56;31.90;;;16.30;;
34920;SDS011;21128;50.016;20.002;2023-04-21T06:05:23;29.63;;;15.63;;
34920;SDS011;21128;50.016;20.002;2023-04-21T06:07:50;31.13;;;14.40;;
34920;SDS011;21128;50.016;20.002;2023-04-21T06:10:17;26.05;;;13.25;;
34920;SDS011;21128;50.016;20.002;2023-04-21T06:12:44;33.45;;;13.65;;
34920;SDS011;21128;50.016;20.002;2023-04-21T06:15:11;28.50;;;12.40;;
34920;SDS011;21128;50.016;20.002;2023-04-21T06:17:38;23.33;;;12.83;;
34920;SDS011;21128;50.016;20.002;2023-04-21T06:20:06;32.00;;;14.30;;
34920;SDS011;21128;50.016;20.002;2023-04-21T06:22:34;25.95;;;13.28;;
34920;SDS011;21128;50.016;20.002;2023-04-21T06:25:01;25.70;;;13.43;;
34920;SDS011;21128;50.016;20.002;2023-04-21T06:27:29;29.37;;;13.93;;
34920;SDS011;21128;50.016;20.002;2023-04-21T06:29:55;29.33;;;14.07;;
34920;SDS011;21128;50.016;20.002;2023-04-21T06:32:22;30.10;;;14.43;;
34920;SDS011;21128;50.016;20.002;2023-04-21T06:34:49;29.73;;;14.77;;
34920;SDS011;21128;50.016;20.002;2023-04-21T06:37:16;34.35;;;14.63;;
34920;SDS011;21128;50.016;20.002;2023-04-21T06:39:43;30.73;;;14.87;;
34920;SDS011;21128;50.016;20.002;2023-04-21T06:42:10;33.58;;;14.78;;
34920;SDS011;21128;50.016;20.002;2023-04-21T06:44:37;37.20;;;14.47;;
34920;SDS011;21128;50.016;20.002;2023-04-21T06:47:04;37.17;;;13.63;;
34920;SDS011;21128;50.016;20.002;2023-04-21T06:49:32;32.10;;;13.55;;
34920;SDS011;21128;50.016;20.002;2023-04-21T06:51:59;29.23;;;12.50;;
34920;SDS011;21128;50.016;20.002;2023-04-21T06:54:26;39.88;;;15.00;;
34920;SDS011;21128;50.016;20.002;2023-04-21T06:56:53;33.13;;;13.37;;
34920;SDS011;21128;50.016;20.002;2023-04-21T06:59:22;27.53;;;13.10;;
34920;SDS011;21128;50.016;20.002;2023-04-21T07:01:51;39.33;;;14.13;;
34920;SDS011;21128;50.016;20.002;2023-04-21T07:04:18;31.97;;;13.90;;
34920;SDS011;21128;50.016;20.002;2023-04-21T07:06:45;38.60;;;15.50;;
34920;SDS011;21128;50.016;20.002;2023-04-21T07:09:12;33.77;;;13.93;;
34920;SDS011;21128;50.016;20.002;2023-04-21T07:11:39;43.68;;;15.93;;
34920;SDS011;21128;50.016;20.002;2023-04-21T07:14:06;38.40;;;14.43;;
34920;SDS011;21128;50.016;20.002;2023-04-21T07:16:33;36.45;;;15.70;;
34920;SDS011;21128;50.016;20.002;2023-04-21T07:19:00;41.93;;;15.40;;
34920;SDS011;21128;50.016;20.002;2023-04-21T07:21:27;37.67;;;15.93;;
34920;SDS011;21128;50.016;20.002;2023-04-21T07:23:57;50.87;;;16.90;;
34920;SDS011;21128;50.016;20.002;2023-04-21T07:26:24;47.55;;;17.82;;
34920;SDS011;21128;50.016;20.002;2023-04-21T07:28:51;40.40;;;17.07;;
34920;SDS011;21128;50.016;20.002;2023-04-21T07:31:18;54.70;;;19.70;;
34920;SDS011;21128;50.016;20.002;2023-04-21T07:33:45;51.17;;;18.10;;
34920;SDS011;21128;50.016;20.002;2023-04-21T07:36:13;50.50;;;17.63;;
34920;SDS011;21128;50.016;20.002;2023-04-21T07:38:42;54.77;;;18.98;;
34920;SDS011;21128;50.016;20.002;2023-04-21T07:41:10;44.80;;;17.52;;
34920;SDS011;21128;50.016;20.002;2023-04-21T07:43:38;48.70;;;15.53;;
34920;SDS011;21128;50.016;20.002;2023-04-21T07:46:06;50.80;;;17.70;;
34920;SDS011;21128;50.016;20.002;2023-04-21T07:48:33;46.73;;;16.97;;
34920;SDS011;21128;50.016;20.002;2023-04-21T07:51:01;41.00;;;15.60;;
34920;SDS011;21128;50.016;20.002;2023-04-21T07:53:28;40.30;;;14.80;;
34920;SDS011;21128;50.016;20.002;2023-04-21T07:55:56;41.73;;;15.43;;
34920;SDS011;21128;50.016;20.002;2023-04-21T07:58:24;34.43;;;14.07;;
34920;SDS011;21128;50.016;20.002;2023-04-21T08:00:51;38.10;;;14.23;;
34920;SDS011;21128;50.016;20.002;2023-04-21T08:03:18;42.67;;;14.30;;
34920;SDS011;21128;50.016;20.002;2023-04-21T08:05:45;34.65;;;14.00;;
34920;SDS011;21128;50.016;20.002;2023-04-21T08:08:12;45.90;;;13.57;;
34920;SDS011;21128;50.016;20.002;2023-04-21T08:10:39;38.50;;;13.33;;
34920;SDS011;21128;50.016;20.002;2023-04-21T08:13:06;35.73;;;13.67;;
34920;SDS011;21128;50.016;20.002;2023-04-21T08:15:33;40.87;;;13.57;;
34920;SDS011;21128;50.016;20.002;2023-04-21T08:18:00;47.33;;;12.23;;
34920;SDS011;21128;50.016;20.002;2023-04-21T08:20:27;27.75;;;12.05;;
34920;SDS011;21128;50.016;20.002;2023-04-21T08:22:54;25.63;;;12.00;;
34920;SDS011;21128;50.016;20.002;2023-04-21T08:25:21;34.67;;;13.03;;
34920;SDS011;21128;50.016;20.002;2023-04-21T08:27:48;33.03;;;12.87;;
34920;SDS011;21128;50.016;20.002;2023-04-21T08:30:15;30.08;;;12.58;;
34920;SDS011;21128;50.016;20.002;2023-04-21T08:32:42;26.90;;;10.50;;
34920;SDS011;21128;50.016;20.002;2023-04-21T08:35:09;25.70;;;10.93;;
34920;SDS011;21128;50.016;20.002;2023-04-21T08:37:37;25.50;;;10.17;;
34920;SDS011;21128;50.016;20.002;2023-04-21T08:40:05;27.25;;;9.43;;
34920;SDS011;21128;50.016;20.002;2023-04-21T08:42:33;22.13;;;10.57;;
34920;SDS011;21128;50.016;20.002;2023-04-21T08:45:02;23.17;;;9.77;;
34920;SDS011;21128;50.016;20.002;2023-04-21T08:47:31;16.33;;;9.43;;
34920;SDS011;21128;50.016;20.002;2023-04-21T08:49:58;24.73;;;9.67;;
34920;SDS011;21128;50.016;20.002;2023-04-21T08:52:26;25.90;;;8.97;;
34920;SDS011;21128;50.016;20.002;2023-04-21T08:54:52;18.30;;;8.73;;
34920;SDS011;21128;50.016;20.002;2023-04-21T08:57:21;23.47;;;9.67;;
34920;SDS011;21128;50.016;20.002;2023-04-21T08:59:48;20.47;;;9.17;;
34920;SDS011;21128;50.016;20.002;2023-04-21T09:02:15;21.37;;;8.73;;
34920;SDS011;21128;50.016;20.002;2023-04-21T09:04:45;20.20;;;9.87;;
34920;SDS011;21128;50.016;20.002;2023-04-21T09:07:33;15.70;;;9.63;;
34920;SDS011;21128;50.016;20.002;2023-04-21T09:10:02;26.50;;;11.47;;
34920;SDS011;21128;50.016;20.002;2023-04-21T09:12:31;24.00;;;10.77;;
34920;SDS011;21128;50.016;20.002;2023-04-21T09:14:57;14.93;;;9.18;;
34920;SDS011;21128;50.016;20.002;2023-04-21T09:17:27;20.83;;;9.40;;
34920;SDS011;21128;50.016;20.002;2023-04-21T09:20:12;21.33;;;10.93;;
34920;SDS011;21128;50.016;20.002;2023-04-21T09:22:41;20.17;;;9.57;;
34920;SDS011;21128;50.016;20.002;2023-04-21T09:25:09;22.00;;;10.07;;
34920;SDS011;21128;50.016;20.002;2023-04-21T09:27:36;24.50;;;9.27;;
34920;SDS011;21128;50.016;20.002;2023-04-21T09:30:04;19.55;;;9.48;;
34920;SDS011;21128;50.016;20.002;2023-04-21T09:32:36;21.63;;;10.40;;
34920;SDS011;21128;50.016;20.002;2023-04-21T09:35:10;18.27;;;10.23;;
34920;SDS011;21128;50.016;20.002;2023-04-21T09:37:37;20.87;;;9.80;;
34920;SDS011;21128;50.016;20.002;2023-04-21T09:40:05;20.70;;;9.87;;
34920;SDS011;21128;50.016;20.002;2023-04-21T09:42:33;19.13;;;9.77;;
34920;SDS011;21128;50.016;20.002;2023-04-21T09:45:01;15.43;;;8.00;;
34920;SDS011;21128;50.016;20.002;2023-04-21T09:47:28;15.73;;;8.13;;
34920;SDS011;21128;50.016;20.002;2023-04-21T09:49:58;14.55;;;7.75;;
34920;SDS011;21128;50.016;20.002;2023-04-21T09:52:27;10.40;;;6.90;;
34920;SDS011;21128;50.016;20.002;2023-04-21T09:54:56;15.93;;;7.40;;
34920;SDS011;21128;50.016;20.002;2023-04-21T09:57:27;13.77;;;7.57;;
34920;SDS011;21128;50.016;20.002;2023-04-21T10:00:01;13.53;;;7.23;;
34920;SDS011;21128;50.016;20.002;2023-04-21T10:02:35;15.30;;;7.35;;
34920;SDS011;21128;50.016;20.002;2023-04-21T10:05:08;9.97;;;6.00;;
34920;SDS011;21128;50.016;20.002;2023-04-21T10:07:37;15.33;;;6.07;;
34920;SDS011;21128;50.016;20.002;2023-04-21T10:10:09;10.20;;;6.00;;
34920;SDS011;21128;50.016;20.002;2023-04-21T10:12:45;11.60;;;6.90;;
34920;SDS011;21128;50.016;20.002;2023-04-21T10:21:00;8.20;;;4.10;;
34920;SDS011;21128;50.016;20.002;2023-04-21T10:26:04;7.97;;;4.87;;
34920;SDS011;21128;50.016;20.002;2023-04-21T10:28:38;12.00;;;5.50;;
34920;SDS011;21128;50.016;20.002;2023-04-21T10:37:15;9.13;;;4.27;;
34920;SDS011;21128;50.016;20.002;2023-04-21T10:41:55;9.17;;;4.10;;
34920;SDS011;21128;50.016;20.002;2023-04-21T10:47:24;13.65;;;4.90;;
34920;SDS011;21128;50.016;20.002;2023-04-21T10:49:57;10.53;;;4.57;;
34920;SDS011;21128;50.016;20.002;2023-04-21T10:52:29;6.77;;;3.93;;
34920;SDS011;21128;50.016;20.002;2023-04-21T10:55:05;11.37;;;4.73;;
34920;SDS011;21128;50.016;20.002;2023-04-21T10:57:36;6.93;;;4.03;;
34920;SDS011;21128;50.016;20.002;2023-04-21T11:00:03;5.73;;;3.90;;
34920;SDS011;21128;50.016;20.002;2023-04-21T11:02:32;9.10;;;4.03;;
34920;SDS011;21128;50.016;20.002;2023-04-21T11:05:01;8.13;;;4.30;;
34920;SDS011;21128;50.016;20.002;2023-04-21T11:07:28;17.03;;;4.30;;
34920;SDS011;21128;50.016;20.002;2023-04-21T11:10:16;7.37;;;3.80;;
34920;SDS011;21128;50.016;20.002;2023-04-21T11:12:42;9.60;;;4.27;;
34920;SDS011;21128;50.016;20.002;2023-04-21T11:15:09;5.97;;;4.10;;
34920;SDS011;21128;50.016;20.002;2023-04-21T11:17:38;7.43;;;4.73;;
34920;SDS011;21128;50.016;20.002;2023-04-21T11:20:08;6.77;;;3.73;;
34920;SDS011;21128;50.016;20.002;2023-04-21T11:22:36;7.67;;;4.28;;
34920;SDS011;21128;50.016;20.002;2023-04-21T11:25:04;5.17;;;4.07;;
34920;SDS011;21128;50.016;20.002;2023-04-21T11:27:41;11.85;;;4.70;;
34920;SDS011;21128;50.016;20.002;2023-04-21T11:30:19;9.47;;;4.77;;
34920;SDS011;21128;50.016;20.002;2023-04-21T11:32:52;9.37;;;5.00;;
34920;SDS011;21128;50.016;20.002;2023-04-21T11:35:20;6.83;;;4.47;;
34920;SDS011;21128;50.016;20.002;2023-04-21T11:37:48;10.80;;;5.43;;
34920;SDS011;21128;50.016;20.002;2023-04-21T11:40:17;7.00;;;4.60;;
34920;SDS011;21128;50.016;20.002;2023-04-21T11:42:44;7.50;;;5.10;;
34920;SDS011;21128;50.016;20.002;2023-04-21T11:45:15;7.00;;;4.13;;
34920;SDS011;21128;50.016;20.002;2023-04-21T11:47:46;8.70;;;4.37;;
34920;SDS011;21128;50.016;20.002;2023-04-21T11:50:17;7.27;;;4.93;;
34920;SDS011;21128;50.016;20.002;2023-04-21T11:52:57;10.53;;;4.83;;
34920;SDS011;21128;50.016;20.002;2023-04-21T11:55:24;10.38;;;5.15;;
34920;SDS011;21128;50.016;20.002;2023-04-21T11:57:55;12.13;;;4.80;;
34920;SDS011;21128;50.016;20.002;2023-04-21T12:00:23;8.60;;;4.50;;
34920;SDS011;21128;50.016;20.002;2023-04-21T12:02:56;13.70;;;4.03;;
34920;SDS011;21128;50.016;20.002;2023-04-21T12:05:24;8.30;;;3.73;;
34920;SDS011;21128;50.016;20.002;2023-04-21T12:07:51;9.67;;;4.13;;
34920;SDS011;21128;50.016;20.002;2023-04-21T12:10:21;7.87;;;4.40;;
34920;SDS011;21128;50.016;20.002;2023-04-21T12:12:48;7.67;;;4.08;;
34920;SDS011;21128;50.016;20.002;2023-04-21T12:15:17;8.27;;;4.47;;
34920;SDS011;21128;50.016;20.002;2023-04-21T12:17:46;7.47;;;3.33;;
34920;SDS011;21128;50.016;20.002;2023-04-21T12:20:15;12.77;;;4.27;;
34920;SDS011;21128;50.016;20.002;2023-04-21T12:22:43;8.83;;;3.97;;
34920;SDS011;21128;50.016;20.002;2023-04-21T12:25:11;13.00;;;3.90;;
34920;SDS011;21128;50.016;20.002;2023-04-21T12:27:52;8.23;;;3.30;;
34920;SDS011;21128;50.016;20.002;2023-04-21T12:30:24;8.97;;;3.73;;
34920;SDS011;21128;50.016;20.002;2023-04-21T12:32:51;6.45;;;2.87;;
34920;SDS011;21128;50.016;20.002;2023-04-21T12:35:21;6.23;;;3.37;;
34920;SDS011;21128;50.016;20.002;2023-04-21T12:37:48;7.10;;;3.07;;
34920;SDS011;21128;50.016;20.002;2023-04-21T12:40:15;10.83;;;3.43;;
34920;SDS011;21128;50.016;20.002;2023-04-21T12:42:42;9.20;;;3.30;;
34920;SDS011;21128;50.016;20.002;2023-04-21T12:45:10;13.47;;;3.70;;
34920;SDS011;21128;50.016;20.002;2023-04-21T12:47:37;6.37;;;3.37;;
34920;SDS011;21128;50.016;20.002;2023-04-21T12:50:04;7.13;;;3.30;;
34920;SDS011;21128;50.016;20.002;2023-04-21T12:52:32;7.22;;;2.90;;
34920;SDS011;21128;50.016;20.002;2023-04-21T12:54:59;8.07;;;3.60;;
34920;SDS011;21128;50.016;20.002;2023-04-21T12:57:26;5.90;;;2.63;;
34920;SDS011;21128;50.016;20.002;2023-04-21T12:59:54;6.00;;;2.70;;
34920;SDS011;21128;50.016;20.002;2023-04-21T13:02:21;7.43;;;3.40;;
34920;SDS011;21128;50.016;20.002;2023-04-21T13:04:48;12.07;;;4.20;;
34920;SDS011;21128;50.016;20.002;2023-04-21T13:07:15;8.37;;;3.47;;
34920;SDS011;21128;50.016;20.002;2023-04-21T13:09:46;7.80;;;3.50;;
34920;SDS011;21128;50.016;20.002;2023-04-21T13:12:13;6.97;;;3.00;;
34920;SDS011;21128;50.016;20.002;2023-04-21T13:14:40;10.60;;;3.40;;
34920;SDS011;21128;50.016;20.002;2023-04-21T13:17:08;6.22;;;2.60;;
34920;SDS011;21128;50.016;20.002;2023-04-21T13:19:35;7.27;;;3.10;;
34920;SDS011;21128;50.016;20.002;2023-04-21T13:22:01;12.40;;;2.95;;
34920;SDS011;21128;50.016;20.002;2023-04-21T13:24:28;6.27;;;3.40;;
34920;SDS011;21128;50.016;20.002;2023-04-21T13:26:57;10.80;;;3.13;;
34920;SDS011;21128;50.016;20.002;2023-04-21T13:29:25;8.67;;;3.37;;
34920;SDS011;21128;50.016;20.002;2023-04-21T13:31:55;7.67;;;2.60;;
34920;SDS011;21128;50.016;20.002;2023-04-21T13:34:22;6.93;;;2.90;;
34920;SDS011;21128;50.016;20.002;2023-04-21T13:36:49;8.60;;;2.93;;
34920;SDS011;21128;50.016;20.002;2023-04-21T13:39:16;6.50;;;2.83;;
34920;SDS011;21128;50.016;20.002;2023-04-21T13:41:43;4.77;;;3.40;;
34920;SDS011;21128;50.016;20.002;2023-04-21T13:44:10;9.47;;;3.50;;
34920;SDS011;21128;50.016;20.002;2023-04-21T13:46:37;6.55;;;3.15;;
34920;SDS011;21128;50.016;20.002;2023-04-21T13:49:04;10.23;;;3.10;;
34920;SDS011;21128;50.016;20.002;2023-04-21T13:51:32;7.50;;;2.80;;
34920;SDS011;21128;50.016;20.002;2023-04-21T13:53:59;9.80;;;2.80;;
34920;SDS011;21128;50.016;20.002;2023-04-21T13:56:26;18.35;;;10.20;;
34920;SDS011;21128;50.016;20.002;2023-04-21T13:58:53;10.97;;;6.83;;
34920;SDS011;21128;50.016;20.002;2023-04-21T14:01:20;8.43;;;5.87;;
34920;SDS011;21128;50.016;20.002;2023-04-21T14:03:47;5.28;;;2.90;;
34920;SDS011;21128;50.016;20.002;2023-04-21T14:06:14;7.10;;;3.35;;
34920;SDS011;21128;50.016;20.002;2023-04-21T14:08:42;10.07;;;2.97;;
34920;SDS011;21128;50.016;20.002;2023-04-21T14:11:09;9.50;;;3.20;;
34920;SDS011;21128;50.016;20.002;2023-04-21T14:13:35;8.23;;;3.30;;
34920;SDS011;21128;50.016;20.002;2023-04-21T14:16:02;5.03;;;2.83;;
34920;SDS011;21128;50.016;20.002;2023-04-21T14:18:30;7.47;;;2.53;;
34920;SDS011;21128;50.016;20.002;2023-04-21T14:20:58;5.80;;;2.50;;
34920;SDS011;21128;50.016;20.002;2023-04-21T14:23:25;7.27;;;2.80;;
34920;SDS011;21128;50.016;20.002;2023-04-21T14:25:52;7.20;;;2.70;;
34920;SDS011;21128;50.016;20.002;2023-04-21T14:28:19;4.13;;;2.20;;
34920;SDS011;21128;50.016;20.002;2023-04-21T14:30:46;4.10;;;2.30;;
34920;SDS011;21128;50.016;20.002;2023-04-21T14:33:13;5.97;;;2.58;;
34920;SDS011;21128;50.016;20.002;2023-04-21T14:35:40;4.43;;;2.70;;
34920;SDS011;21128;50.016;20.002;2023-04-21T14:38:07;10.50;;;3.20;;
34920;SDS011;21128;50.016;20.002;2023-04-21T14:40:34;6.60;;;2.85;;